createdAt,value
2022-08-17T00:00:43.028Z,55.44
2022-08-17T00:03:15.146Z,55.56
2022-08-17T00:06:00.727Z,55.61
2022-08-17T00:08:38.494Z,55.87
2022-08-17T00:11:13.582Z,55.98
2022-08-17T00:13:51.455Z,56.13
2022-08-17T00:16:56.315Z,56.18
2022-08-17T00:19:08.827Z,56.38
2022-08-17T00:22:28.691Z,56.53
2022-08-17T00:24:19.072Z,56.67
2022-08-17T00:26:51.242Z,56.65
2022-08-17T00:29:23.360Z,56.76
2022-08-17T00:31:55.369Z,56.83
2022-08-17T00:34:27.945Z,56.86
2022-08-17T00:36:59.964Z,57.02
2022-08-17T00:39:32.249Z,57.05
2022-08-17T00:42:05.715Z,57.11
2022-08-17T00:44:37.747Z,57.24
2022-08-17T00:47:09.841Z,57.25
2022-08-17T00:49:42.121Z,57.39
2022-08-17T00:52:18.603Z,57.55
2022-08-17T00:54:54.038Z,57.50
2022-08-17T00:57:38.077Z,57.60
2022-08-17T01:00:16.110Z,57.70
2022-08-17T01:02:50.038Z,57.75
2022-08-17T01:05:25.631Z,57.98
2022-08-17T01:07:58.863Z,58.15
2022-08-17T01:10:58.797Z,58.31
2022-08-17T01:13:19.182Z,58.50
2022-08-17T01:16:06.140Z,58.71
2022-08-17T01:18:38.961Z,58.95
2022-08-17T01:21:16.865Z,59.21
2022-08-17T01:23:49.096Z,59.81
2022-08-17T01:26:22.342Z,60.20
2022-08-17T01:28:56.079Z,60.30
2022-08-17T01:31:31.279Z,60.23
2022-08-17T01:34:05.816Z,60.67
2022-08-17T01:36:40.850Z,60.57
2022-08-17T01:39:32.332Z,60.71
2022-08-17T01:42:10.903Z,61.02
2022-08-17T01:44:44.711Z,61.18
2022-08-17T01:47:16.932Z,61.16
2022-08-17T01:49:50.856Z,61.41
2022-08-17T01:52:23.812Z,61.47
2022-08-17T01:54:56.486Z,61.60
2022-08-17T01:57:28.665Z,61.69
2022-08-17T02:00:00.750Z,61.88
2022-08-17T02:02:34.474Z,61.97
2022-08-17T02:05:07.298Z,61.95
2022-08-17T02:07:59.821Z,62.12
2022-08-17T02:10:20.121Z,62.23
2022-08-17T02:12:49.027Z,62.37
2022-08-17T02:15:21.475Z,62.46
2022-08-17T02:17:54.781Z,62.56
2022-08-17T02:20:41.332Z,62.61
2022-08-17T02:23:05.255Z,62.65
2022-08-17T02:25:41.200Z,62.45
2022-08-17T02:28:13.289Z,62.57
2022-08-17T02:31:02.205Z,62.65
2022-08-17T02:33:20.162Z,62.72
2022-08-17T02:35:52.800Z,62.72
2022-08-17T02:38:24.951Z,62.67
2022-08-17T02:40:56.975Z,62.76
2022-08-17T02:43:29.649Z,62.79
2022-08-17T02:46:01.702Z,62.79
2022-08-17T02:48:34.186Z,62.84
2022-08-17T02:51:06.525Z,63.05
2022-08-17T02:53:38.581Z,63.05
2022-08-17T02:56:10.592Z,63.23
2022-08-17T02:58:42.720Z,62.75
2022-08-17T03:01:15.392Z,62.56
2022-08-17T03:03:47.359Z,62.69
2022-08-17T03:06:19.521Z,62.24
2022-08-17T03:08:52.356Z,62.01
2022-08-17T03:11:24.492Z,62.22
2022-08-17T03:13:56.891Z,62.01
2022-08-17T03:16:29.365Z,61.94
2022-08-17T03:19:01.952Z,61.42
2022-08-17T03:21:34.169Z,61.20
2022-08-17T03:24:08.882Z,61.02
2022-08-17T03:26:40.000Z,60.59
2022-08-17T03:29:13.710Z,60.30
2022-08-17T03:31:48.276Z,59.77
2022-08-17T03:34:21.275Z,59.76
2022-08-17T03:36:53.234Z,59.50
2022-08-17T03:39:25.404Z,59.09
2022-08-17T03:42:07.286Z,58.97
2022-08-17T03:44:39.953Z,58.73
2022-08-17T03:47:29.402Z,58.13
2022-08-17T03:50:03.254Z,57.78
2022-08-17T03:52:53.552Z,57.59
2022-08-17T03:55:43.624Z,57.06
2022-08-17T03:58:15.846Z,56.89
2022-08-17T04:00:48.806Z,56.57
2022-08-17T04:03:21.396Z,56.54
2022-08-17T04:05:53.701Z,56.26
2022-08-17T04:08:26.037Z,55.86
2022-08-17T04:11:00.137Z,55.51
2022-08-17T04:13:32.460Z,55.30
2022-08-17T04:16:04.470Z,54.80
2022-08-17T04:18:36.658Z,54.66
2022-08-17T04:21:10.538Z,54.54
2022-08-17T04:23:42.921Z,54.05
2022-08-17T04:26:52.288Z,54.05
2022-08-17T04:28:50.983Z,54.00
2022-08-17T04:31:23.771Z,53.66
2022-08-17T04:33:56.269Z,53.26
2022-08-17T04:36:28.598Z,53.05
2022-08-17T04:39:00.807Z,52.91
2022-08-17T04:41:50.532Z,52.79
2022-08-17T04:44:37.157Z,52.64
2022-08-17T04:46:56.478Z,52.35
2022-08-17T04:49:28.424Z,51.99
2022-08-17T04:52:04.458Z,51.68
2022-08-17T04:54:34.576Z,50.92
2022-08-17T04:57:07.229Z,50.46
2022-08-17T04:59:39.218Z,50.27
2022-08-17T05:02:12.902Z,50.17
2022-08-17T05:04:45.079Z,49.80
2022-08-17T05:07:23.083Z,48.82
2022-08-17T05:09:52.346Z,48.54
2022-08-17T05:12:24.434Z,47.99
2022-08-17T05:14:56.864Z,47.94
2022-08-17T05:17:29.648Z,47.72
2022-08-17T05:20:02.206Z,47.26
2022-08-17T05:22:35.044Z,46.87
2022-08-17T05:25:07.889Z,46.84
2022-08-17T05:27:40.858Z,46.26
2022-08-17T05:30:15.849Z,46.71
2022-08-17T05:33:15.194Z,45.62
2022-08-17T05:35:50.274Z,45.00
2022-08-17T05:38:24.762Z,44.67
2022-08-17T05:40:59.403Z,44.46
2022-08-17T05:43:34.721Z,44.14
2022-08-17T05:46:18.938Z,43.81
2022-08-17T05:48:55.266Z,43.79
2022-08-17T05:51:30.560Z,43.58
2022-08-17T05:54:22.608Z,43.44
2022-08-17T05:57:29.196Z,43.12
2022-08-17T06:00:26.346Z,42.72
2022-08-17T06:03:21.803Z,42.79
2022-08-17T06:06:08.858Z,42.47
2022-08-17T06:08:51.630Z,41.72
2022-08-17T06:11:45.936Z,41.55
2022-08-17T06:14:21.169Z,41.27
2022-08-17T06:16:56.450Z,40.16
2022-08-17T06:19:46.908Z,38.50
2022-08-17T06:22:21.831Z,37.46
2022-08-17T06:25:01.580Z,36.41
2022-08-17T06:27:39.982Z,35.49
2022-08-17T06:30:27.550Z,34.59
2022-08-17T06:33:04.299Z,34.25
2022-08-17T06:35:51.623Z,33.49
2022-08-17T06:38:37.934Z,31.85
2022-08-17T06:41:21.260Z,31.13
2022-08-17T06:43:59.271Z,31.05
2022-08-17T06:46:48.457Z,31.14
2022-08-17T06:49:29.475Z,31.16
2022-08-17T06:52:10.302Z,30.50
2022-08-17T06:54:47.395Z,29.21
2022-08-17T06:57:31.841Z,28.06
2022-08-17T07:00:16.556Z,27.65
2022-08-17T07:03:19.100Z,27.34
2022-08-17T07:05:55.337Z,27.62
2022-08-17T07:08:35.117Z,28.25
2022-08-17T07:11:10.645Z,28.89
2022-08-17T07:13:55.007Z,29.77
2022-08-17T07:16:30.824Z,30.72
2022-08-17T07:19:04.310Z,31.49
2022-08-17T07:21:45.080Z,32.23
2022-08-17T07:24:29.761Z,32.58
2022-08-17T07:27:12.278Z,32.95
2022-08-17T07:29:47.547Z,32.91
2022-08-17T07:32:23.499Z,32.79
2022-08-17T07:35:11.330Z,32.97
2022-08-17T07:37:56.181Z,33.19
2022-08-17T07:40:31.557Z,33.31
2022-08-17T07:43:06.913Z,33.03
2022-08-17T07:45:59.566Z,32.88
2022-08-17T07:48:33.879Z,32.80
2022-08-17T07:51:27.746Z,32.94
2022-08-17T07:54:14.484Z,32.85
2022-08-17T07:56:46.632Z,32.90
2022-08-17T07:59:23.735Z,32.56
2022-08-17T08:02:03.631Z,32.68
2022-08-17T08:05:00.638Z,31.83
2022-08-17T08:07:27.291Z,31.40
2022-08-17T08:10:05.457Z,31.54
2022-08-17T08:12:47.921Z,31.41
2022-08-17T08:15:25.751Z,31.01
2022-08-17T08:18:01.051Z,31.23
2022-08-17T08:20:53.312Z,31.75
2022-08-17T08:23:44.200Z,31.80
2022-08-17T08:26:23.576Z,31.96
2022-08-17T08:29:18.294Z,31.89
2022-08-17T08:31:57.246Z,31.72
2022-08-17T08:34:54.736Z,31.63
2022-08-17T08:37:39.108Z,31.65
2022-08-17T08:40:27.420Z,31.61
2022-08-17T08:43:20.579Z,31.67
2022-08-17T08:46:28.441Z,31.43
2022-08-17T08:50:02.049Z,31.43
2022-08-17T08:52:15.116Z,31.67
2022-08-17T08:54:50.493Z,31.54
2022-08-17T08:57:34.927Z,31.45
2022-08-17T09:00:15.916Z,31.06
2022-08-17T09:03:06.304Z,31.18
2022-08-17T09:05:54.355Z,31.34
2022-08-17T09:08:36.105Z,31.16
2022-08-17T09:11:21.798Z,31.14
2022-08-17T09:14:21.107Z,31.00
2022-08-17T09:16:51.747Z,30.68
2022-08-17T09:19:36.074Z,30.72
2022-08-17T09:22:31.753Z,30.70
2022-08-17T09:25:16.006Z,30.99
2022-08-17T09:28:00.913Z,31.14
2022-08-17T09:30:51.474Z,31.00
2022-08-17T09:33:28.402Z,31.02
2022-08-17T09:36:06.593Z,30.92
2022-08-17T09:38:59.797Z,30.96
2022-08-17T09:41:48.990Z,31.16
2022-08-17T09:44:29.877Z,30.92
2022-08-17T09:47:07.954Z,31.43
2022-08-17T09:49:52.306Z,31.40
2022-08-17T09:52:27.211Z,30.89
2022-08-17T09:55:01.568Z,30.75
2022-08-17T09:57:46.086Z,30.71
2022-08-17T10:00:30.332Z,30.58
2022-08-17T10:03:16.487Z,30.61
2022-08-17T10:06:01.329Z,30.54
2022-08-17T10:08:36.992Z,29.83
2022-08-17T10:11:19.017Z,29.68
2022-08-17T10:13:59.596Z,29.66
2022-08-17T10:16:38.277Z,29.73
2022-08-17T10:19:19.405Z,29.58
2022-08-17T10:22:14.715Z,29.42
2022-08-17T10:25:21.739Z,29.44
2022-08-17T10:27:51.737Z,28.95
2022-08-17T10:30:27.341Z,28.82
2022-08-17T10:33:05.760Z,28.71
2022-08-17T10:35:47.029Z,28.50
2022-08-17T10:38:34.053Z,28.68
2022-08-17T10:41:08.979Z,28.33
2022-08-17T10:44:38.120Z,28.35
2022-08-17T10:46:54.546Z,28.38
2022-08-17T10:49:29.550Z,28.65
2022-08-17T10:52:07.546Z,28.13
2022-08-17T10:54:42.637Z,28.08
2022-08-17T10:57:36.235Z,27.85
2022-08-17T11:00:17.029Z,28.02
2022-08-17T11:02:57.673Z,27.93
2022-08-17T11:05:48.174Z,27.76
2022-08-17T11:08:36.535Z,27.42
2022-08-17T11:11:35.037Z,27.29
2022-08-17T11:14:25.057Z,27.42
2022-08-17T11:17:33.011Z,27.69
2022-08-17T11:20:17.181Z,27.68
2022-08-17T11:22:54.184Z,27.42
2022-08-17T11:25:56.092Z,27.29
2022-08-17T11:28:35.992Z,27.20
2022-08-17T11:31:39.336Z,27.06
2022-08-17T11:34:03.863Z,26.61
2022-08-17T11:36:52.117Z,25.89
2022-08-17T11:39:36.900Z,25.00
2022-08-17T11:42:31.364Z,24.31
2022-08-17T11:45:17.582Z,24.29
2022-08-17T11:48:27.184Z,24.53
2022-08-17T11:51:09.696Z,24.98
2022-08-17T11:53:45.127Z,25.38
2022-08-17T11:56:41.688Z,25.92
2022-08-17T11:59:46.087Z,26.10
2022-08-17T12:02:33.058Z,26.22
2022-08-17T12:05:14.082Z,25.84
2022-08-17T12:08:09.802Z,25.51
2022-08-17T12:10:59.888Z,24.69
2022-08-17T12:13:39.363Z,23.36
2022-08-17T12:16:10.147Z,21.31
2022-08-17T12:18:45.343Z,19.34
2022-08-17T12:21:20.291Z,17.61
2022-08-17T12:24:29.656Z,16.20
2022-08-17T12:27:05.498Z,14.91
2022-08-17T12:29:40.533Z,13.63
2022-08-17T12:32:17.091Z,12.83
2022-08-17T12:34:51.633Z,12.27
2022-08-17T12:37:31.030Z,12.01
2022-08-17T12:40:06.293Z,12.62
2022-08-17T12:42:42.088Z,13.56
2022-08-17T12:45:26.781Z,13.21
2022-08-17T12:48:08.745Z,12.84
2022-08-17T12:50:44.960Z,11.96
2022-08-17T12:53:20.434Z,11.66
2022-08-17T12:55:53.599Z,10.92
2022-08-17T12:58:29.241Z,10.92
2022-08-17T13:01:10.137Z,10.19
2022-08-17T13:03:49.816Z,9.76
2022-08-17T13:06:37.559Z,9.42
2022-08-17T13:09:15.877Z,9.22
2022-08-17T13:12:02.097Z,8.94
2022-08-17T13:14:35.587Z,8.82
2022-08-17T13:17:13.470Z,8.51
2022-08-17T13:19:50.563Z,8.51
2022-08-17T13:22:25.949Z,8.41
2022-08-17T13:25:03.060Z,8.29
2022-08-17T13:27:35.222Z,8.29
2022-08-17T13:30:10.545Z,8.39
2022-08-17T13:32:46.954Z,8.55
2022-08-17T13:35:47.067Z,8.60
2022-08-17T13:38:37.747Z,9.19
2022-08-17T13:41:12.461Z,8.62
2022-08-17T13:43:49.346Z,8.57
2022-08-17T13:46:27.595Z,8.74
2022-08-17T13:49:05.336Z,8.68
2022-08-17T13:51:46.210Z,8.64
2022-08-17T13:54:30.403Z,8.84
2022-08-17T13:57:17.514Z,8.89
2022-08-17T13:59:54.687Z,8.79
2022-08-17T14:02:28.354Z,8.90
2022-08-17T14:05:06.031Z,8.94
2022-08-17T14:07:39.554Z,9.04
2022-08-17T14:10:17.517Z,9.22
2022-08-17T14:12:50.784Z,9.26
2022-08-17T14:15:23.636Z,9.16
2022-08-17T14:17:57.895Z,8.73
2022-08-17T14:20:32.068Z,9.33
2022-08-17T14:23:04.362Z,9.59
2022-08-17T14:25:36.797Z,9.79
2022-08-17T14:28:09.289Z,9.91
2022-08-17T14:30:43.119Z,9.91
2022-08-17T14:33:18.871Z,9.87
2022-08-17T14:35:53.046Z,10.05
2022-08-17T14:38:25.988Z,10.20
2022-08-17T14:40:59.037Z,10.24
2022-08-17T14:43:32.773Z,10.48
2022-08-17T14:46:05.638Z,10.60
2022-08-17T14:48:39.710Z,10.90
2022-08-17T14:51:12.262Z,11.10
2022-08-17T14:53:46.088Z,11.24
2022-08-17T14:56:17.682Z,11.21
2022-08-17T14:58:49.344Z,10.66
2022-08-17T15:01:24.604Z,11.33
2022-08-17T15:03:58.280Z,12.09
2022-08-17T15:06:30.675Z,14.66
2022-08-17T15:09:03.135Z,14.66
2022-08-17T15:11:35.548Z,16.32
2022-08-17T15:14:08.481Z,17.52
2022-08-17T15:16:41.412Z,18.37
2022-08-17T15:19:14.617Z,19.28
2022-08-17T15:21:47.312Z,20.08
2022-08-17T15:24:19.494Z,20.40
2022-08-17T15:26:52.595Z,20.93
2022-08-17T15:29:25.423Z,21.46
2022-08-17T15:32:00.727Z,22.01
2022-08-17T15:34:32.566Z,22.26
2022-08-17T15:37:05.486Z,22.71
2022-08-17T15:39:38.198Z,23.00
2022-08-17T15:42:10.945Z,23.38
2022-08-17T15:44:44.651Z,23.71
2022-08-17T15:47:17.881Z,23.95
2022-08-17T15:49:51.040Z,24.23
2022-08-17T15:52:26.084Z,24.54
2022-08-17T15:55:01.650Z,25.33
2022-08-17T15:57:35.746Z,25.02
2022-08-17T16:00:10.409Z,25.25
2022-08-17T16:03:44.312Z,25.27
2022-08-17T16:05:24.235Z,25.54
2022-08-17T16:07:57.308Z,25.84
2022-08-17T16:10:35.425Z,26.11
2022-08-17T16:13:03.389Z,26.35
2022-08-17T16:15:36.025Z,26.45
2022-08-17T16:18:08.265Z,26.75
2022-08-17T16:20:40.877Z,26.93
2022-08-17T16:23:18.536Z,27.11
2022-08-17T16:25:53.101Z,27.21
2022-08-17T16:28:35.755Z,27.41
2022-08-17T16:30:58.581Z,27.87
2022-08-17T16:33:30.921Z,28.03
2022-08-17T16:36:03.361Z,28.24
2022-08-17T16:38:37.453Z,28.40
2022-08-17T16:41:09.923Z,28.43
2022-08-17T16:43:43.768Z,28.52
2022-08-17T16:46:16.161Z,28.74
2022-08-17T16:48:48.398Z,29.17
2022-08-17T16:51:21.079Z,29.32
2022-08-17T16:53:54.541Z,29.46
2022-08-17T16:56:28.495Z,29.51
2022-08-17T16:59:09.139Z,29.64
2022-08-17T17:01:34.335Z,29.76
2022-08-17T17:04:09.612Z,29.82
2022-08-17T17:07:10.364Z,29.94
2022-08-17T17:09:47.294Z,30.24
2022-08-17T17:12:34.856Z,30.31
2022-08-17T17:14:56.491Z,30.59
2022-08-17T17:17:40.276Z,30.58
2022-08-17T17:20:22.124Z,30.94
2022-08-17T17:23:12.894Z,31.06
2022-08-17T17:25:51.078Z,31.45
2022-08-17T17:28:33.690Z,31.47
2022-08-17T17:31:13.474Z,31.64
2022-08-17T17:33:50.210Z,31.64
2022-08-17T17:36:35.295Z,31.84
2022-08-17T17:39:31.501Z,31.86
2022-08-17T17:42:08.367Z,32.03
2022-08-17T17:44:43.439Z,32.29
2022-08-17T17:47:17.360Z,32.33
2022-08-17T17:49:49.950Z,32.48
2022-08-17T17:52:35.544Z,32.67
2022-08-17T17:55:37.948Z,32.71
2022-08-17T17:58:30.168Z,32.96
2022-08-17T18:01:24.035Z,32.83
2022-08-17T18:04:17.657Z,32.76
2022-08-17T18:06:52.188Z,33.08
2022-08-17T18:09:34.008Z,33.00
2022-08-17T18:12:15.155Z,33.11
2022-08-17T18:15:04.231Z,33.27
2022-08-17T18:17:36.621Z,33.53
2022-08-17T18:20:09.225Z,33.60
2022-08-17T18:22:42.471Z,33.86
2022-08-17T18:25:53.533Z,33.93
2022-08-17T18:28:35.918Z,34.23
2022-08-17T18:31:11.343Z,34.50
2022-08-17T18:33:50.104Z,34.85
2022-08-17T18:36:38.259Z,34.95
2022-08-17T18:39:19.571Z,35.17
2022-08-17T18:41:55.033Z,35.48
2022-08-17T18:44:45.263Z,35.75
2022-08-17T18:47:27.057Z,36.04
2022-08-17T18:50:02.476Z,36.25
2022-08-17T18:52:35.709Z,36.51
2022-08-17T18:55:15.160Z,36.86
2022-08-17T18:57:50.667Z,37.08
2022-08-17T19:00:41.620Z,37.19
2022-08-17T19:03:25.801Z,37.33
2022-08-17T19:06:17.560Z,37.53
2022-08-17T19:08:50.167Z,37.49
2022-08-17T19:11:36.708Z,37.69
2022-08-17T19:14:11.986Z,37.65
2022-08-17T19:16:59.103Z,37.71
2022-08-17T19:19:55.156Z,37.81
2022-08-17T19:22:31.263Z,37.90
2022-08-17T19:25:18.610Z,38.05
2022-08-17T19:28:21.715Z,38.23
2022-08-17T19:30:44.999Z,38.14
2022-08-17T19:33:19.476Z,38.33
2022-08-17T19:36:09.457Z,36.88
2022-08-17T19:38:47.963Z,38.46
2022-08-17T19:41:29.437Z,38.64
2022-08-17T19:44:16.631Z,38.90
2022-08-17T19:46:56.272Z,38.94
2022-08-17T19:49:46.772Z,38.99
2022-08-17T19:52:42.683Z,39.11
2022-08-17T19:55:21.004Z,39.25
2022-08-17T19:57:56.031Z,39.42
2022-08-17T20:00:31.271Z,39.55
2022-08-17T20:03:07.142Z,39.61
2022-08-17T20:06:11.659Z,37.82
2022-08-17T20:08:42.459Z,39.78
2022-08-17T20:11:20.485Z,39.89
2022-08-17T20:13:55.571Z,39.96
2022-08-17T20:16:28.061Z,40.03
2022-08-17T20:19:19.553Z,40.13
2022-08-17T20:22:03.574Z,40.24
2022-08-17T20:24:47.436Z,40.29
2022-08-17T20:27:31.888Z,40.18
2022-08-17T20:30:25.917Z,40.22
2022-08-17T20:32:59.282Z,40.24
2022-08-17T20:35:36.981Z,40.24
2022-08-17T20:38:14.798Z,40.31
2022-08-17T20:40:59.839Z,40.15
2022-08-17T20:43:38.055Z,40.24
2022-08-17T20:46:29.419Z,40.27
2022-08-17T20:49:14.681Z,40.31
2022-08-17T20:52:02.682Z,40.46
2022-08-17T20:54:54.119Z,40.61
2022-08-17T20:57:38.451Z,40.39
2022-08-17T21:00:17.833Z,40.42
2022-08-17T21:02:52.955Z,40.62
2022-08-17T21:05:32.550Z,40.67
2022-08-17T21:08:20.350Z,41.13
2022-08-17T21:10:53.325Z,41.15
2022-08-17T21:13:34.755Z,41.37
2022-08-17T21:16:33.696Z,41.61
2022-08-17T21:19:31.232Z,41.86
2022-08-17T21:22:09.403Z,41.92
2022-08-17T21:25:09.568Z,42.11
2022-08-17T21:27:44.735Z,42.39
2022-08-17T21:30:24.519Z,42.67
2022-08-17T21:33:20.177Z,42.80
2022-08-17T21:35:58.574Z,43.12
2022-08-17T21:38:38.387Z,41.10
2022-08-17T21:41:22.448Z,43.15
2022-08-17T21:43:57.782Z,43.38
2022-08-17T21:46:35.032Z,43.64
2022-08-17T21:49:13.481Z,43.74
2022-08-17T21:51:49.310Z,44.05
2022-08-17T21:54:43.824Z,44.16
2022-08-17T21:57:26.286Z,44.23
2022-08-17T22:00:00.934Z,44.47
2022-08-17T22:02:37.256Z,44.73
2022-08-17T22:05:15.414Z,45.08
2022-08-17T22:07:53.473Z,44.84
2022-08-17T22:10:31.556Z,45.08
2022-08-17T22:13:06.201Z,45.20
2022-08-17T22:15:40.913Z,45.44
2022-08-17T22:18:17.555Z,45.67
2022-08-17T22:20:52.948Z,45.76
2022-08-17T22:23:51.332Z,45.76
2022-08-17T22:26:26.294Z,45.94
2022-08-17T22:29:00.065Z,45.89
2022-08-17T22:31:34.998Z,46.40
2022-08-17T22:34:15.749Z,46.40
2022-08-17T22:36:47.910Z,46.23
2022-08-17T22:39:23.328Z,46.32
2022-08-17T22:42:00.272Z,46.29
2022-08-17T22:44:38.349Z,46.32
2022-08-17T22:47:31.191Z,46.45
2022-08-17T22:50:06.289Z,46.70
2022-08-17T22:52:59.218Z,46.87
2022-08-17T22:55:52.939Z,47.09
2022-08-17T22:58:43.734Z,47.31
2022-08-17T23:01:26.475Z,47.44
2022-08-17T23:04:02.945Z,47.68
2022-08-17T23:06:37.096Z,47.76
2022-08-17T23:09:09.563Z,47.99
2022-08-17T23:11:49.908Z,48.13
2022-08-17T23:14:22.670Z,48.28
2022-08-17T23:16:54.741Z,48.51
2022-08-17T23:19:28.479Z,48.67
2022-08-17T23:22:02.988Z,48.86
2022-08-17T23:24:42.371Z,49.03
2022-08-17T23:27:14.807Z,49.25
2022-08-17T23:29:48.730Z,49.56
2022-08-17T23:32:22.354Z,49.67
2022-08-17T23:34:54.622Z,49.79
2022-08-17T23:37:27.747Z,49.99
2022-08-17T23:40:00.418Z,50.19
2022-08-17T23:42:34.887Z,50.47
2022-08-17T23:45:07.875Z,50.62
2022-08-17T23:47:40.471Z,50.79
2022-08-17T23:50:12.595Z,51.01
2022-08-17T23:52:46.813Z,51.15
2022-08-17T23:55:18.999Z,51.37
2022-08-17T23:57:51.396Z,51.52
